sensor_id;sensor_type;location;lat;lon;timestamp;pressure;altitude;pressure_sealevel;temperature;humidity
56518;BME280;42419;48.760;2.322;2022-09-12T00:02:18;100824.44;;;22.55;48.90
56518;BME280;42419;48.760;2.322;2022-09-12T00:04:44;100823.63;;;22.53;49.12
56518;BME280;42419;48.760;2.322;2022-09-12T00:07:09;100819.19;;;22.52;49.27
56518;BME280;42419;48.760;2.322;2022-09-12T00:09:34;100827.22;;;22.52;49.13
56518;BME280;42419;48.760;2.322;2022-09-12T00:12:00;100805.28;;;22.44;48.99
56518;BME280;42419;48.760;2.322;2022-09-12T00:14:25;100819.25;;;22.51;49.03
56518;BME280;42419;48.760;2.322;2022-09-12T00:16:50;100817.50;;;22.50;48.77
56518;BME280;42419;48.760;2.322;2022-09-12T00:19:16;100809.56;;;22.48;48.82
56518;BME280;42419;48.760;2.322;2022-09-12T00:21:43;100814.91;;;22.48;48.81
56518;BME280;42419;48.760;2.322;2022-09-12T00:24:09;100793.03;;;22.38;48.58
56518;BME280;42419;48.760;2.322;2022-09-12T00:26:35;100799.91;;;22.44;48.75
56518;BME280;42419;48.760;2.322;2022-09-12T00:29:01;100791.22;;;22.39;48.89
56518;BME280;42419;48.760;2.322;2022-09-12T00:31:27;100805.19;;;22.46;48.66
56518;BME280;42419;48.760;2.322;2022-09-12T00:33:54;100799.03;;;22.44;48.76
56518;BME280;42419;48.760;2.322;2022-09-12T00:36:22;100785.03;;;22.37;48.60
56518;BME280;42419;48.760;2.322;2022-09-12T00:38:49;100789.25;;;22.42;48.55
56518;BME280;42419;48.760;2.322;2022-09-12T00:41:19;100777.84;;;22.37;48.48
56518;BME280;42419;48.760;2.322;2022-09-12T00:43:51;100761.34;;;22.28;48.94
56518;BME280;42419;48.760;2.322;2022-09-12T00:49:07;100763.72;;;22.34;48.65
56518;BME280;42419;48.760;2.322;2022-09-12T00:51:35;100776.81;;;22.40;48.73
56518;BME280;42419;48.760;2.322;2022-09-12T00:54:06;100758.53;;;22.31;48.65
56518;BME280;42419;48.760;2.322;2022-09-12T00:56:35;100767.13;;;22.37;48.75
56518;BME280;42419;48.760;2.322;2022-09-12T00:59:09;100761.81;;;22.36;48.66
56518;BME280;42419;48.760;2.322;2022-09-12T01:01:37;100757.66;;;22.30;48.45
56518;BME280;42419;48.760;2.322;2022-09-12T01:04:03;100767.19;;;22.36;48.57
56518;BME280;42419;48.760;2.322;2022-09-12T01:06:34;100768.38;;;22.30;48.59
56518;BME280;42419;48.760;2.322;2022-09-12T01:09:02;100768.22;;;22.33;48.50
56518;BME280;42419;48.760;2.322;2022-09-12T01:11:30;100769.09;;;22.34;48.39
56518;BME280;42419;48.760;2.322;2022-09-12T01:13:56;100772.66;;;22.34;48.35
56518;BME280;42419;48.760;2.322;2022-09-12T01:16:21;100752.63;;;22.23;48.76
56518;BME280;42419;48.760;2.322;2022-09-12T01:30:03;100758.66;;;22.28;48.62
56518;BME280;42419;48.760;2.322;2022-09-12T01:35:40;100748.09;;;22.25;48.70
56518;BME280;42419;48.760;2.322;2022-09-12T01:38:21;100742.72;;;22.25;48.55
56518;BME280;42419;48.760;2.322;2022-09-12T01:46:31;100725.81;;;22.23;48.71
56518;BME280;42419;48.760;2.322;2022-09-12T01:49:06;100732.16;;;22.22;48.30
56518;BME280;42419;48.760;2.322;2022-09-12T01:51:40;100725.97;;;22.20;48.61
56518;BME280;42419;48.760;2.322;2022-09-12T01:54:10;100727.72;;;22.21;48.43
56518;BME280;42419;48.760;2.322;2022-09-12T01:56:38;100736.66;;;22.21;48.59
56518;BME280;42419;48.760;2.322;2022-09-12T01:59:30;100732.22;;;22.20;48.49
56518;BME280;42419;48.760;2.322;2022-09-12T02:02:02;100727.84;;;22.18;48.53
56518;BME280;42419;48.760;2.322;2022-09-12T02:04:52;100722.66;;;22.15;48.48
56518;BME280;42419;48.760;2.322;2022-09-12T02:07:36;100728.72;;;22.18;48.37
56518;BME280;42419;48.760;2.322;2022-09-12T02:10:15;100725.38;;;22.13;48.50
56518;BME280;42419;48.760;2.322;2022-09-12T02:13:05;100729.75;;;22.16;48.55
56518;BME280;42419;48.760;2.322;2022-09-12T02:15:35;100722.59;;;22.16;48.67
56518;BME280;42419;48.760;2.322;2022-09-12T02:18:04;100720.91;;;22.14;48.61
56518;BME280;42419;48.760;2.322;2022-09-12T02:20:35;100719.09;;;22.14;48.40
56518;BME280;42419;48.760;2.322;2022-09-12T02:23:05;100719.09;;;22.14;48.50
56518;BME280;42419;48.760;2.322;2022-09-12T02:25:36;100712.94;;;22.12;48.41
56518;BME280;42419;48.760;2.322;2022-09-12T02:28:09;100716.50;;;22.13;48.33
56518;BME280;42419;48.760;2.322;2022-09-12T02:30:40;100714.66;;;22.13;48.48
56518;BME280;42419;48.760;2.322;2022-09-12T02:33:21;100711.97;;;22.13;48.30
56518;BME280;42419;48.760;2.322;2022-09-12T02:35:48;100709.41;;;22.12;48.69
56518;BME280;42419;48.760;2.322;2022-09-12T02:40:47;100706.88;;;22.09;48.51
56518;BME280;42419;48.760;2.322;2022-09-12T02:43:12;100707.72;;;22.09;48.43
56518;BME280;42419;48.760;2.322;2022-09-12T02:45:37;100700.69;;;22.07;48.37
56518;BME280;42419;48.760;2.322;2022-09-12T02:50:28;100643.72;;;21.83;48.48
56518;BME280;42419;48.760;2.322;2022-09-12T02:52:54;100687.28;;;22.07;48.47
56518;BME280;42419;48.760;2.322;2022-09-12T02:55:25;100683.75;;;22.06;48.32
56518;BME280;42419;48.760;2.322;2022-09-12T02:57:50;100685.56;;;22.06;48.43
56518;BME280;42419;48.760;2.322;2022-09-12T03:00:16;100690.03;;;22.05;48.48
56518;BME280;42419;48.760;2.322;2022-09-12T03:03:21;100681.13;;;22.05;48.31
56518;BME280;42419;48.760;2.322;2022-09-12T03:05:57;100679.47;;;22.02;48.39
56518;BME280;42419;48.760;2.322;2022-09-12T03:22:45;100665.47;;;21.95;48.52
56518;BME280;42419;48.760;2.322;2022-09-12T03:25:35;100666.44;;;21.94;48.43
56518;BME280;42419;48.760;2.322;2022-09-12T03:28:13;100657.53;;;21.94;48.47
56518;BME280;42419;48.760;2.322;2022-09-12T03:30:43;100662.09;;;21.92;48.33
56518;BME280;42419;48.760;2.322;2022-09-12T03:33:13;100668.31;;;21.92;48.60
56518;BME280;42419;48.760;2.322;2022-09-12T03:35:38;100656.81;;;21.90;48.28
56518;BME280;42419;48.760;2.322;2022-09-12T03:38:04;100649.63;;;21.91;48.58
56518;BME280;42419;48.760;2.322;2022-09-12T03:40:32;100660.28;;;21.92;48.35
56518;BME280;42419;48.760;2.322;2022-09-12T03:42:57;100657.66;;;21.91;48.23
56518;BME280;42419;48.760;2.322;2022-09-12T03:45:23;100656.81;;;21.90;48.36
56518;BME280;42419;48.760;2.322;2022-09-12T03:47:48;100646.09;;;21.90;48.10
56518;BME280;42419;48.760;2.322;2022-09-12T03:50:13;100651.47;;;21.90;48.16
56518;BME280;42419;48.760;2.322;2022-09-12T03:52:39;100650.66;;;21.88;48.28
56518;BME280;42419;48.760;2.322;2022-09-12T03:55:04;100655.06;;;21.89;48.33
56518;BME280;42419;48.760;2.322;2022-09-12T03:57:30;100658.69;;;21.88;48.31
56518;BME280;42419;48.760;2.322;2022-09-12T03:59:55;100659.56;;;21.89;48.09
56518;BME280;42419;48.760;2.322;2022-09-12T04:02:20;100649.03;;;21.84;48.35
56518;BME280;42419;48.760;2.322;2022-09-12T04:04:46;100662.31;;;21.87;48.25
56518;BME280;42419;48.760;2.322;2022-09-12T04:07:13;100660.56;;;21.86;48.25
56518;BME280;42419;48.760;2.322;2022-09-12T04:09:40;100659.72;;;21.86;48.16
56518;BME280;42419;48.760;2.322;2022-09-12T04:12:05;100663.25;;;21.86;48.25
56518;BME280;42419;48.760;2.322;2022-09-12T04:14:31;100653.53;;;21.84;48.20
56518;BME280;42419;48.760;2.322;2022-09-12T04:16:56;100664.19;;;21.85;48.30
56518;BME280;42419;48.760;2.322;2022-09-12T04:19:21;100657.28;;;21.80;48.29
56518;BME280;42419;48.760;2.322;2022-09-12T04:21:47;100666.00;;;21.85;48.45
56518;BME280;42419;48.760;2.322;2022-09-12T04:24:13;100669.41;;;21.88;48.32
56518;BME280;42419;48.760;2.322;2022-09-12T04:26:38;100668.38;;;21.91;48.22
56518;BME280;42419;48.760;2.322;2022-09-12T04:29:03;100665.66;;;21.92;48.37
56518;BME280;42419;48.760;2.322;2022-09-12T04:31:29;100655.94;;;21.90;48.34
56518;BME280;42419;48.760;2.322;2022-09-12T04:33:59;100661.97;;;21.95;48.39
56518;BME280;42419;48.760;2.322;2022-09-12T04:36:26;100651.31;;;21.93;48.26
56518;BME280;42419;48.760;2.322;2022-09-12T04:38:53;100662.50;;;22.02;48.28
56518;BME280;42419;48.760;2.322;2022-09-12T04:41:24;100659.66;;;22.05;48.07
56518;BME280;42419;48.760;2.322;2022-09-12T04:43:52;100658.59;;;22.09;48.21
56518;BME280;42419;48.760;2.322;2022-09-12T04:46:17;100656.69;;;22.11;47.96
56518;BME280;42419;48.760;2.322;2022-09-12T04:48:45;100631.22;;;22.02;48.31
56518;BME280;42419;48.760;2.322;2022-09-12T04:51:31;100642.19;;;22.15;48.27
56518;BME280;42419;48.760;2.322;2022-09-12T04:53:59;100639.44;;;22.16;47.81
56518;BME280;42419;48.760;2.322;2022-09-12T04:56:27;100648.19;;;22.20;48.30
56518;BME280;42419;48.760;2.322;2022-09-12T04:58:52;100639.22;;;22.21;48.52
56518;BME280;42419;48.760;2.322;2022-09-12T05:01:20;100641.09;;;22.19;48.32
56518;BME280;42419;48.760;2.322;2022-09-12T05:03:46;100624.53;;;22.11;48.09
56518;BME280;42419;48.760;2.322;2022-09-12T05:06:18;100645.22;;;22.26;48.35
56518;BME280;42419;48.760;2.322;2022-09-12T05:08:44;100643.41;;;22.26;48.66
56518;BME280;42419;48.760;2.322;2022-09-12T05:11:16;100639.69;;;22.29;48.49
56518;BME280;42419;48.760;2.322;2022-09-12T05:13:42;100637.00;;;22.29;48.25
56518;BME280;42419;48.760;2.322;2022-09-12T05:16:10;100630.94;;;22.25;48.47
56518;BME280;42419;48.760;2.322;2022-09-12T05:18:37;100637.72;;;22.32;48.48
56518;BME280;42419;48.760;2.322;2022-09-12T05:21:05;100629.59;;;22.34;48.75
56518;BME280;42419;48.760;2.322;2022-09-12T05:23:31;100628.66;;;22.35;48.66
56518;BME280;42419;48.760;2.322;2022-09-12T05:25:57;100581.84;;;22.06;48.08
56518;BME280;42419;48.760;2.322;2022-09-12T05:28:24;100637.44;;;22.38;48.33
56518;BME280;42419;48.760;2.322;2022-09-12T05:33:39;100622.97;;;22.41;48.72
56518;BME280;42419;48.760;2.322;2022-09-12T05:36:06;100618.88;;;22.34;48.27
56518;BME280;42419;48.760;2.322;2022-09-12T05:38:35;100627.41;;;22.42;48.56
56518;BME280;42419;48.760;2.322;2022-09-12T05:41:09;100612.66;;;22.33;48.76
56518;BME280;42419;48.760;2.322;2022-09-12T05:43:36;100633.41;;;22.47;48.49
56518;BME280;42419;48.760;2.322;2022-09-12T05:46:08;100634.16;;;22.49;48.47
56518;BME280;42419;48.760;2.322;2022-09-12T05:48:34;100635.91;;;22.50;48.89
56518;BME280;42419;48.760;2.322;2022-09-12T05:51:02;100627.22;;;22.45;48.77
56518;BME280;42419;48.760;2.322;2022-09-12T05:53:29;100642.81;;;22.56;49.26
56518;BME280;42419;48.760;2.322;2022-09-12T05:56:09;100637.47;;;22.56;49.21
56518;BME280;42419;48.760;2.322;2022-09-12T05:58:36;100621.72;;;22.48;49.07
56518;BME280;42419;48.760;2.322;2022-09-12T06:01:04;100637.16;;;22.62;48.89
56518;BME280;42419;48.760;2.322;2022-09-12T06:03:31;100638.03;;;22.62;48.95
56518;BME280;42419;48.760;2.322;2022-09-12T06:06:00;100634.31;;;22.65;49.25
56518;BME280;42419;48.760;2.322;2022-09-12T06:08:26;100633.25;;;22.67;48.92
56518;BME280;42419;48.760;2.322;2022-09-12T06:10:57;100630.50;;;22.69;49.15
56518;BME280;42419;48.760;2.322;2022-09-12T06:13:23;100641.19;;;22.70;48.96
56518;BME280;42419;48.760;2.322;2022-09-12T06:15:48;100641.06;;;22.72;49.24
56518;BME280;42419;48.760;2.322;2022-09-12T06:18:14;100643.69;;;22.73;49.27
56518;BME280;42419;48.760;2.322;2022-09-12T06:20:39;100618.13;;;22.66;49.27
56518;BME280;42419;48.760;2.322;2022-09-12T06:23:04;100635.63;;;22.73;49.21
56518;BME280;42419;48.760;2.322;2022-09-12T06:25:30;100637.22;;;22.77;49.63
56518;BME280;42419;48.760;2.322;2022-09-12T06:27:55;100644.16;;;22.81;49.31
56518;BME280;42419;48.760;2.322;2022-09-12T06:30:20;100624.28;;;22.68;49.33
56518;BME280;42419;48.760;2.322;2022-09-12T06:32:46;100653.00;;;22.83;49.18
56518;BME280;42419;48.760;2.322;2022-09-12T06:35:11;100639.91;;;22.77;49.04
56518;BME280;42419;48.760;2.322;2022-09-12T06:37:38;100645.09;;;22.80;49.17
56518;BME280;42419;48.760;2.322;2022-09-12T06:40:05;100631.13;;;22.74;49.17
56518;BME280;42419;48.760;2.322;2022-09-12T06:42:34;100656.31;;;22.89;48.96
56518;BME280;42419;48.760;2.322;2022-09-12T06:44:59;100652.66;;;22.90;49.12
56518;BME280;42419;48.760;2.322;2022-09-12T06:47:24;100649.13;;;22.89;49.22
56518;BME280;42419;48.760;2.322;2022-09-12T06:49:50;100649.97;;;22.90;48.69
56518;BME280;42419;48.760;2.322;2022-09-12T06:52:15;100641.91;;;22.90;48.97
56518;BME280;42419;48.760;2.322;2022-09-12T06:54:40;100618.19;;;22.82;48.60
56518;BME280;42419;48.760;2.322;2022-09-12T06:57:06;100643.66;;;22.91;48.61
56518;BME280;42419;48.760;2.322;2022-09-12T06:59:32;100643.66;;;22.91;48.42
56518;BME280;42419;48.760;2.322;2022-09-12T07:01:57;100646.28;;;22.92;48.53
56518;BME280;42419;48.760;2.322;2022-09-12T07:04:23;100625.34;;;22.81;48.66
56518;BME280;42419;48.760;2.322;2022-09-12T07:06:48;100648.03;;;22.93;48.35
56518;BME280;42419;48.760;2.322;2022-09-12T07:09:14;100640.13;;;22.90;48.47
56518;BME280;42419;48.760;2.322;2022-09-12T07:11:43;100636.47;;;22.91;48.63
56518;BME280;42419;48.760;2.322;2022-09-12T07:14:11;100642.56;;;22.95;48.62
56518;BME280;42419;48.760;2.322;2022-09-12T07:16:37;100634.75;;;22.90;48.43
56518;BME280;42419;48.760;2.322;2022-09-12T07:19:04;100654.00;;;22.98;48.82
56518;BME280;42419;48.760;2.322;2022-09-12T07:21:30;100639.97;;;22.93;49.05
56518;BME280;42419;48.760;2.322;2022-09-12T07:23:56;100638.84;;;22.97;49.24
56518;BME280;42419;48.760;2.322;2022-09-12T07:26:26;100652.25;;;23.14;49.50
56518;BME280;42419;48.760;2.322;2022-09-12T07:28:54;100642.50;;;23.12;49.52
56518;BME280;42419;48.760;2.322;2022-09-12T07:31:22;100645.44;;;23.07;48.66
56518;BME280;42419;48.760;2.322;2022-09-12T07:33:48;100645.56;;;23.06;48.58
56518;BME280;42419;48.760;2.322;2022-09-12T07:36:16;100648.13;;;23.07;48.90
56518;BME280;42419;48.760;2.322;2022-09-12T07:38:42;100643.63;;;23.08;48.33
56518;BME280;42419;48.760;2.322;2022-09-12T07:41:20;100646.25;;;23.09;48.67
56518;BME280;42419;48.760;2.322;2022-09-12T07:43:50;100636.44;;;23.08;48.40
56518;BME280;42419;48.760;2.322;2022-09-12T07:46:15;100641.91;;;23.07;47.59
56518;BME280;42419;48.760;2.322;2022-09-12T07:48:41;100636.63;;;23.05;47.56
56518;BME280;42419;48.760;2.322;2022-09-12T07:51:08;100639.25;;;23.07;47.77
56518;BME280;42419;48.760;2.322;2022-09-12T07:53:36;100627.88;;;23.02;48.03
56518;BME280;42419;48.760;2.322;2022-09-12T07:56:03;100581.63;;;22.79;47.52
56518;BME280;42419;48.760;2.322;2022-09-12T07:58:30;100641.50;;;23.14;47.96
56518;BME280;42419;48.760;2.322;2022-09-12T08:01:07;100643.13;;;23.17;48.12
56518;BME280;42419;48.760;2.322;2022-09-12T08:03:33;100626.56;;;23.09;47.87
56518;BME280;42419;48.760;2.322;2022-09-12T08:06:07;100643.78;;;23.22;48.07
56518;BME280;42419;48.760;2.322;2022-09-12T08:08:32;100641.97;;;23.22;47.90
56518;BME280;42419;48.760;2.322;2022-09-12T08:11:00;100640.09;;;23.24;47.88
56518;BME280;42419;48.760;2.322;2022-09-12T08:13:27;100633.75;;;23.25;47.78
56518;BME280;42419;48.760;2.322;2022-09-12T08:15:56;100632.81;;;23.26;47.08
56518;BME280;42419;48.760;2.322;2022-09-12T08:18:22;100631.78;;;23.29;47.40
56518;BME280;42419;48.760;2.322;2022-09-12T08:20:47;100645.97;;;23.31;46.84
56518;BME280;42419;48.760;2.322;2022-09-12T08:23:12;100643.53;;;23.26;46.76
56518;BME280;42419;48.760;2.322;2022-09-12T08:25:38;100637.94;;;23.31;46.74
56518;BME280;42419;48.760;2.322;2022-09-12T08:28:03;100636.09;;;23.32;46.86
56518;BME280;42419;48.760;2.322;2022-09-12T08:30:28;100641.41;;;23.33;46.79
56518;BME280;42419;48.760;2.322;2022-09-12T08:32:53;100639.50;;;23.35;46.66
56518;BME280;42419;48.760;2.322;2022-09-12T08:35:19;100635.94;;;23.35;46.94
56518;BME280;42419;48.760;2.322;2022-09-12T08:37:44;100632.22;;;23.37;46.59
56518;BME280;42419;48.760;2.322;2022-09-12T08:40:14;100638.22;;;23.42;46.53
56518;BME280;42419;48.760;2.322;2022-09-12T08:42:56;100640.72;;;23.45;46.55
56518;BME280;42419;48.760;2.322;2022-09-12T08:45:33;100635.16;;;23.48;46.14
56518;BME280;42419;48.760;2.322;2022-09-12T08:48:03;100643.09;;;23.51;46.13
56518;BME280;42419;48.760;2.322;2022-09-12T08:50:29;100635.97;;;23.50;46.46
56518;BME280;42419;48.760;2.322;2022-09-12T08:53:02;100638.28;;;23.56;46.72
56518;BME280;42419;48.760;2.322;2022-09-12T08:57:59;100646.91;;;23.63;46.13
56518;BME280;42419;48.760;2.322;2022-09-12T09:00:33;100646.47;;;23.70;45.60
56518;BME280;42419;48.760;2.322;2022-09-12T09:06:16;100642.09;;;23.85;46.06
56518;BME280;42419;48.760;2.322;2022-09-12T09:09:04;100629.25;;;23.90;46.15
56518;BME280;42419;48.760;2.322;2022-09-12T09:14:20;100632.16;;;24.01;45.97
56518;BME280;42419;48.760;2.322;2022-09-12T09:17:14;100628.25;;;24.07;45.80
56518;BME280;42419;48.760;2.322;2022-09-12T09:19:47;100617.31;;;24.10;45.73
56518;BME280;42419;48.760;2.322;2022-09-12T09:22:20;100616.09;;;24.15;46.07
56518;BME280;42419;48.760;2.322;2022-09-12T09:24:52;100625.31;;;24.11;45.56
56518;BME280;42419;48.760;2.322;2022-09-12T09:27:32;100617.50;;;24.07;46.10
56518;BME280;42419;48.760;2.322;2022-09-12T09:30:01;100619.06;;;24.11;46.26
56518;BME280;42419;48.760;2.322;2022-09-12T09:32:28;100622.94;;;24.21;44.92
56518;BME280;42419;48.760;2.322;2022-09-12T09:34:55;100613.38;;;24.31;44.99
56518;BME280;42419;48.760;2.322;2022-09-12T09:37:30;100613.59;;;24.42;45.61
56518;BME280;42419;48.760;2.322;2022-09-12T09:40:23;100590.53;;;24.38;45.01
56518;BME280;42419;48.760;2.322;2022-09-12T09:45:24;100610.50;;;24.64;45.24
56518;BME280;42419;48.760;2.322;2022-09-12T09:47:56;100606.94;;;24.64;45.09
56518;BME280;42419;48.760;2.322;2022-09-12T09:50:23;100605.03;;;24.66;45.42
56518;BME280;42419;48.760;2.322;2022-09-12T09:52:50;100613.50;;;24.74;45.52
56518;BME280;42419;48.760;2.322;2022-09-12T09:55:27;100611.03;;;24.85;45.46
56518;BME280;42419;48.760;2.322;2022-09-12T09:57:55;100584.41;;;24.80;44.97
56518;BME280;42419;48.760;2.322;2022-09-12T10:03:41;100591.88;;;25.03;44.08
56518;BME280;42419;48.760;2.322;2022-09-12T10:05:59;100590.59;;;25.11;44.61
56518;BME280;42419;48.760;2.322;2022-09-12T10:08:30;100585.78;;;25.16;44.12
56518;BME280;42419;48.760;2.322;2022-09-12T10:13:33;100574.13;;;25.29;44.28
56518;BME280;42419;48.760;2.322;2022-09-12T10:16:03;100572.31;;;25.30;44.01
56518;BME280;42419;48.760;2.322;2022-09-12T10:18:56;100569.56;;;25.44;44.16
56518;BME280;42419;48.760;2.322;2022-09-12T10:24:42;100557.31;;;25.53;43.72
56518;BME280;42419;48.760;2.322;2022-09-12T10:29:46;100560.28;;;25.62;44.14
56518;BME280;42419;48.760;2.322;2022-09-12T10:32:23;100568.84;;;25.69;43.83
56518;BME280;42419;48.760;2.322;2022-09-12T10:34:52;100576.44;;;25.76;43.51
56518;BME280;42419;48.760;2.322;2022-09-12T10:37:27;100576.06;;;25.82;43.08
56518;BME280;42419;48.760;2.322;2022-09-12T10:39:56;100574.78;;;25.88;43.51
56518;BME280;42419;48.760;2.322;2022-09-12T10:42:46;100568.97;;;25.94;43.52
56518;BME280;42419;48.760;2.322;2022-09-12T10:45:28;100565.09;;;25.98;43.52
56518;BME280;42419;48.760;2.322;2022-09-12T10:47:56;100563.81;;;26.04;43.05
56518;BME280;42419;48.760;2.322;2022-09-12T10:50:27;100552.94;;;26.05;42.66
56518;BME280;42419;48.760;2.322;2022-09-12T10:52:53;100537.69;;;26.04;42.70
56518;BME280;42419;48.760;2.322;2022-09-12T10:55:28;100547.66;;;26.16;42.46
56518;BME280;42419;48.760;2.322;2022-09-12T11:01:34;100549.16;;;26.20;42.42
56518;BME280;42419;48.760;2.322;2022-09-12T11:04:25;100549.72;;;26.25;42.13
56518;BME280;42419;48.760;2.322;2022-09-12T11:18:09;100565.00;;;26.39;42.02
56518;BME280;42419;48.760;2.322;2022-09-12T11:21:04;100563.09;;;26.41;41.57
56518;BME280;42419;48.760;2.322;2022-09-12T11:29:46;100556.69;;;26.42;40.89
56518;BME280;42419;48.760;2.322;2022-09-12T11:40:54;100524.19;;;26.44;41.00
56518;BME280;42419;48.760;2.322;2022-09-12T11:43:40;100520.53;;;26.45;41.15
56518;BME280;42419;48.760;2.322;2022-09-12T11:46:16;100506.06;;;26.46;40.80
56518;BME280;42419;48.760;2.322;2022-09-12T11:51:38;100504.97;;;26.48;40.76
56518;BME280;42419;48.760;2.322;2022-09-12T11:54:13;100508.31;;;26.52;40.94
56518;BME280;42419;48.760;2.322;2022-09-12T11:56:45;100499.25;;;26.53;40.75
56518;BME280;42419;48.760;2.322;2022-09-12T11:59:17;100500.75;;;26.44;40.95
56518;BME280;42419;48.760;2.322;2022-09-12T12:01:46;100508.00;;;26.44;40.76
56518;BME280;42419;48.760;2.322;2022-09-12T12:04:19;100501.63;;;26.45;40.94
56518;BME280;42419;48.760;2.322;2022-09-12T12:06:53;100493.22;;;26.49;41.06
56518;BME280;42419;48.760;2.322;2022-09-12T12:09:20;100487.91;;;26.48;40.70
56518;BME280;42419;48.760;2.322;2022-09-12T12:11:52;100484.13;;;26.38;40.62
56518;BME280;42419;48.760;2.322;2022-09-12T12:14:25;100484.56;;;26.31;40.89
56518;BME280;42419;48.760;2.322;2022-09-12T12:16:53;100485.44;;;26.32;41.10
56518;BME280;42419;48.760;2.322;2022-09-12T12:21:47;100491.38;;;26.37;40.98
56518;BME280;42419;48.760;2.322;2022-09-12T12:26:54;100491.16;;;26.40;40.83
56518;BME280;42419;48.760;2.322;2022-09-12T12:34:36;100496.47;;;26.42;40.81
56518;BME280;42419;48.760;2.322;2022-09-12T12:40:19;100496.00;;;26.48;40.80
56518;BME280;42419;48.760;2.322;2022-09-12T12:47:46;100487.56;;;26.52;40.79
56518;BME280;42419;48.760;2.322;2022-09-12T12:50:22;100489.31;;;26.53;40.67
56518;BME280;42419;48.760;2.322;2022-09-12T12:52:53;100484.78;;;26.54;40.29
56518;BME280;42419;48.760;2.322;2022-09-12T12:55:34;100481.22;;;26.53;39.05
56518;BME280;42419;48.760;2.322;2022-09-12T12:58:04;100486.16;;;26.47;39.45
56518;BME280;42419;48.760;2.322;2022-09-12T13:00:38;100479.72;;;26.37;39.56
56518;BME280;42419;48.760;2.322;2022-09-12T13:06:21;100472.41;;;26.24;39.69
56518;BME280;42419;48.760;2.322;2022-09-12T13:08:43;100458.59;;;26.16;40.01
56518;BME280;42419;48.760;2.322;2022-09-12T13:11:16;100469.63;;;26.13;40.28
56518;BME280;42419;48.760;2.322;2022-09-12T13:13:56;100466.13;;;26.11;40.43
56518;BME280;42419;48.760;2.322;2022-09-12T13:16:50;100467.22;;;26.09;40.13
56518;BME280;42419;48.760;2.322;2022-09-12T13:19:23;100466.38;;;26.08;40.29
56518;BME280;42419;48.760;2.322;2022-09-12T13:22:03;100461.59;;;25.99;40.18
56518;BME280;42419;48.760;2.322;2022-09-12T13:24:29;100458.69;;;26.02;40.58
56518;BME280;42419;48.760;2.322;2022-09-12T13:26:55;100455.03;;;26.03;40.17
56518;BME280;42419;48.760;2.322;2022-09-12T13:29:24;100451.59;;;26.01;40.09
56518;BME280;42419;48.760;2.322;2022-09-12T13:31:55;100440.56;;;26.04;39.98
56518;BME280;42419;48.760;2.322;2022-09-12T13:34:38;100434.63;;;25.99;39.92
56518;BME280;42419;48.760;2.322;2022-09-12T13:40:17;100414.13;;;25.97;40.52
56518;BME280;42419;48.760;2.322;2022-09-12T13:42:47;100411.22;;;26.00;40.10
56518;BME280;42419;48.760;2.322;2022-09-12T13:45:14;100413.13;;;25.98;40.47
56518;BME280;42419;48.760;2.322;2022-09-12T13:47:45;100420.47;;;25.96;40.44
56518;BME280;42419;48.760;2.322;2022-09-12T13:50:30;100418.66;;;25.96;39.81
56518;BME280;42419;48.760;2.322;2022-09-12T13:52:58;100394.25;;;25.85;39.96
56518;BME280;42419;48.760;2.322;2022-09-12T13:55:32;100406.13;;;25.95;39.91
56518;BME280;42419;48.760;2.322;2022-09-12T13:58:04;100416.06;;;25.95;40.29
56518;BME280;42419;48.760;2.322;2022-09-12T14:00:31;100417.16;;;25.92;39.95
56518;BME280;42419;48.760;2.322;2022-09-12T14:02:59;100402.66;;;25.93;40.08
56518;BME280;42419;48.760;2.322;2022-09-12T14:06:01;100389.16;;;25.80;40.05
56518;BME280;42419;48.760;2.322;2022-09-12T14:08:27;100398.44;;;25.89;40.33
56518;BME280;42419;48.760;2.322;2022-09-12T14:10:54;100366.03;;;25.64;39.90
56518;BME280;42419;48.760;2.322;2022-09-12T14:13:23;100400.41;;;25.87;39.99
56518;BME280;42419;48.760;2.322;2022-09-12T14:15:50;100373.19;;;25.77;40.27
56518;BME280;42419;48.760;2.322;2022-09-12T14:18:27;100379.00;;;25.84;39.60
56518;BME280;42419;48.760;2.322;2022-09-12T14:20:54;100378.91;;;25.85;39.73
56518;BME280;42419;48.760;2.322;2022-09-12T14:23:32;100369.31;;;25.81;40.04
56518;BME280;42419;48.760;2.322;2022-09-12T14:26:01;100366.53;;;25.83;40.01
56518;BME280;42419;48.760;2.322;2022-09-12T14:28:29;100364.03;;;25.80;39.98
56518;BME280;42419;48.760;2.322;2022-09-12T14:31:22;100367.59;;;25.80;39.66
56518;BME280;42419;48.760;2.322;2022-09-12T14:33:55;100318.34;;;25.52;39.32
56518;BME280;42419;48.760;2.322;2022-09-12T14:36:39;100363.16;;;25.79;39.63
56518;BME280;42419;48.760;2.322;2022-09-12T14:39:14;100355.72;;;25.83;39.80
56518;BME280;42419;48.760;2.322;2022-09-12T14:41:41;100365.34;;;25.87;39.70
56518;BME280;42419;48.760;2.322;2022-09-12T14:44:20;100362.41;;;25.90;39.21
56518;BME280;42419;48.760;2.322;2022-09-12T14:46:47;100351.41;;;25.93;39.38
56518;BME280;42419;48.760;2.322;2022-09-12T14:49:24;100360.25;;;25.95;39.55
56518;BME280;42419;48.760;2.322;2022-09-12T14:51:55;100358.34;;;25.97;39.24
56518;BME280;42419;48.760;2.322;2022-09-12T14:56:55;100356.38;;;25.99;39.44
56518;BME280;42419;48.760;2.322;2022-09-12T14:59:37;100356.38;;;25.99;38.78
56518;BME280;42419;48.760;2.322;2022-09-12T15:02:30;100357.97;;;26.02;39.59
56518;BME280;42419;48.760;2.322;2022-09-12T15:10:18;100331.00;;;26.02;40.50
56518;BME280;42419;48.760;2.322;2022-09-12T15:12:47;100320.09;;;26.03;40.04
56518;BME280;42419;48.760;2.322;2022-09-12T15:15:15;100306.53;;;25.92;40.13
56518;BME280;42419;48.760;2.322;2022-09-12T15:17:41;100323.66;;;26.04;40.12
56518;BME280;42419;48.760;2.322;2022-09-12T15:20:07;100317.50;;;26.02;40.30